sensor_id;sensor_type;location;lat;lon;timestamp;pressure;altitude;pressure_sealevel;temperature;humidity
8641;BME280;4358;42.100;25.222;2023-09-18T00:00:53;100567.63;;;20.89;100.00
8641;BME280;4358;42.100;25.222;2023-09-18T00:03:22;100568.13;;;21.02;100.00
8641;BME280;4358;42.100;25.222;2023-09-18T00:05:50;100574.28;;;21.12;100.00
8641;BME280;4358;42.100;25.222;2023-09-18T00:08:18;100567.19;;;21.11;100.00
8641;BME280;4358;42.100;25.222;2023-09-18T00:10:46;100562.72;;;21.02;100.00
8641;BME280;4358;42.100;25.222;2023-09-18T00:13:14;100559.03;;;21.03;100.00
8641;BME280;4358;42.100;25.222;2023-09-18T00:15:41;100567.78;;;21.05;100.00
8641;BME280;4358;42.100;25.222;2023-09-18T00:18:11;100557.72;;;21.07;100.00
8641;BME280;4358;42.100;25.222;2023-09-18T00:20:38;100562.78;;;21.10;100.00
8641;BME280;4358;42.100;25.222;2023-09-18T00:23:06;100566.81;;;21.06;100.00
8641;BME280;4358;42.100;25.222;2023-09-18T00:25:33;100561.22;;;21.18;100.00
8641;BME280;4358;42.100;25.222;2023-09-18T00:28:00;100558.91;;;21.23;100.00
8641;BME280;4358;42.100;25.222;2023-09-18T00:30:27;100556.41;;;21.11;100.00
8641;BME280;4358;42.100;25.222;2023-09-18T00:32:53;100559.22;;;21.20;100.00
8641;BME280;4358;42.100;25.222;2023-09-18T00:35:22;100554.19;;;21.25;100.00
8641;BME280;4358;42.100;25.222;2023-09-18T00:37:49;100553.88;;;21.28;100.00
8641;BME280;4358;42.100;25.222;2023-09-18T00:40:16;100558.38;;;21.09;100.00
8641;BME280;4358;42.100;25.222;2023-09-18T00:42:43;100556.53;;;21.20;100.00
8641;BME280;4358;42.100;25.222;2023-09-18T00:45:09;100549.78;;;21.24;100.00
8641;BME280;4358;42.100;25.222;2023-09-18T00:47:36;100548.84;;;21.33;100.00
8641;BME280;4358;42.100;25.222;2023-09-18T00:50:04;100550.78;;;21.40;100.00
8641;BME280;4358;42.100;25.222;2023-09-18T00:52:35;100547.63;;;21.45;100.00
8641;BME280;4358;42.100;25.222;2023-09-18T00:55:02;100544.53;;;21.40;100.00
8641;BME280;4358;42.100;25.222;2023-09-18T00:57:29;100546.84;;;21.35;100.00
8641;BME280;4358;42.100;25.222;2023-09-18T00:59:56;100543.59;;;21.31;100.00
8641;BME280;4358;42.100;25.222;2023-09-18T01:02:23;100550.09;;;21.21;100.00
8641;BME280;4358;42.100;25.222;2023-09-18T01:04:52;100534.13;;;21.27;100.00
8641;BME280;4358;42.100;25.222;2023-09-18T01:07:18;100545.44;;;21.31;100.00
8641;BME280;4358;42.100;25.222;2023-09-18T01:09:47;100541.66;;;21.41;100.00
8641;BME280;4358;42.100;25.222;2023-09-18T01:12:18;100539.75;;;21.34;100.00
8641;BME280;4358;42.100;25.222;2023-09-18T01:14:52;100541.66;;;21.41;100.00
8641;BME280;4358;42.100;25.222;2023-09-18T01:17:23;100536.09;;;21.43;100.00
8641;BME280;4358;42.100;25.222;2023-09-18T01:19:50;100534.41;;;21.42;100.00
8641;BME280;4358;42.100;25.222;2023-09-18T01:22:18;100536.09;;;21.43;100.00
8641;BME280;4358;42.100;25.222;2023-09-18T01:24:48;100530.84;;;21.41;100.00
8641;BME280;4358;42.100;25.222;2023-09-18T01:27:17;100523.94;;;21.39;100.00
8641;BME280;4358;42.100;25.222;2023-09-18T01:29:45;100529.38;;;21.47;100.00
8641;BME280;4358;42.100;25.222;2023-09-18T01:32:12;100532.88;;;21.39;100.00
8641;BME280;4358;42.100;25.222;2023-09-18T01:34:42;100541.50;;;21.43;100.00
8641;BME280;4358;42.100;25.222;2023-09-18T01:37:12;100534.03;;;21.37;100.00
8641;BME280;4358;42.100;25.222;2023-09-18T01:39:41;100532.69;;;21.41;100.00
8641;BME280;4358;42.100;25.222;2023-09-18T01:42:09;100534.13;;;21.45;100.00
8641;BME280;4358;42.100;25.222;2023-09-18T01:44:36;100532.78;;;21.49;100.00
8641;BME280;4358;42.100;25.222;2023-09-18T01:47:06;100535.00;;;21.53;100.00
8641;BME280;4358;42.100;25.222;2023-09-18T01:49:35;100547.19;;;21.58;100.00
8641;BME280;4358;42.100;25.222;2023-09-18T01:52:03;100536.94;;;21.61;100.00
8641;BME280;4358;42.100;25.222;2023-09-18T01:54:30;100545.41;;;21.66;100.00
8641;BME280;4358;42.100;25.222;2023-09-18T01:56:57;100545.41;;;21.66;100.00
8641;BME280;4358;42.100;25.222;2023-09-18T01:59:26;100538.31;;;21.65;100.00
8641;BME280;4358;42.100;25.222;2023-09-18T02:01:53;100537.75;;;21.62;100.00
8641;BME280;4358;42.100;25.222;2023-09-18T02:04:20;100540.09;;;21.56;100.00
8641;BME280;4358;42.100;25.222;2023-09-18T02:06:49;100537.56;;;21.55;100.00
8641;BME280;4358;42.100;25.222;2023-09-18T02:09:16;100540.94;;;21.57;100.00
8641;BME280;4358;42.100;25.222;2023-09-18T02:11:45;100540.19;;;21.47;100.00
8641;BME280;4358;42.100;25.222;2023-09-18T02:14:12;100541.59;;;21.51;100.00
8641;BME280;4358;42.100;25.222;2023-09-18T02:16:42;100543.59;;;21.49;100.00
8641;BME280;4358;42.100;25.222;2023-09-18T02:19:10;100540.50;;;21.44;100.00
8641;BME280;4358;42.100;25.222;2023-09-18T02:21:38;100543.97;;;21.36;100.00
8641;BME280;4358;42.100;25.222;2023-09-18T02:24:05;100543.47;;;21.33;100.00
8641;BME280;4358;42.100;25.222;2023-09-18T02:26:32;100542.47;;;21.34;100.00
8641;BME280;4358;42.100;25.222;2023-09-18T02:29:00;100542.38;;;21.26;100.00
8641;BME280;4358;42.100;25.222;2023-09-18T02:31:27;100549.78;;;21.24;100.00
8641;BME280;4358;42.100;25.222;2023-09-18T02:33:55;100551.19;;;21.28;100.00
8641;BME280;4358;42.100;25.222;2023-09-18T02:36:22;100551.66;;;21.23;100.00
8641;BME280;4358;42.100;25.222;2023-09-18T02:38:49;100549.78;;;21.24;100.00
8641;BME280;4358;42.100;25.222;2023-09-18T02:41:15;100546.53;;;21.20;100.00
8641;BME280;4358;42.100;25.222;2023-09-18T02:43:44;100543.03;;;21.20;100.00
8641;BME280;4358;42.100;25.222;2023-09-18T02:46:11;100551.31;;;21.26;100.00
8641;BME280;4358;42.100;25.222;2023-09-18T02:48:38;100554.19;;;21.25;100.00
8641;BME280;4358;42.100;25.222;2023-09-18T02:51:08;100548.72;;;21.17;100.00
8641;BME280;4358;42.100;25.222;2023-09-18T02:53:35;100554.81;;;21.19;100.00
8641;BME280;4358;42.100;25.222;2023-09-18T02:56:02;100552.13;;;21.19;100.00
8641;BME280;4358;42.100;25.222;2023-09-18T02:58:29;100552.66;;;21.22;100.00
8641;BME280;4358;42.100;25.222;2023-09-18T03:00:57;100559.28;;;21.28;100.00
8641;BME280;4358;42.100;25.222;2023-09-18T03:03:25;100557.09;;;21.31;100.00
8641;BME280;4358;42.100;25.222;2023-09-18T03:05:52;100558.66;;;21.34;100.00
8641;BME280;4358;42.100;25.222;2023-09-18T03:08:20;100559.19;;;21.37;100.00
8641;BME280;4358;42.100;25.222;2023-09-18T03:10:47;100554.78;;;21.36;100.00
8641;BME280;4358;42.100;25.222;2023-09-18T03:13:15;100561.34;;;21.34;100.00
8641;BME280;4358;42.100;25.222;2023-09-18T03:15:45;100554.88;;;21.27;100.00
8641;BME280;4358;42.100;25.222;2023-09-18T03:18:13;100562.06;;;21.18;100.00
8641;BME280;4358;42.100;25.222;2023-09-18T03:20:40;100561.78;;;21.11;100.00
8641;BME280;4358;42.100;25.222;2023-09-18T03:23:07;100568.66;;;21.06;100.00
8641;BME280;4358;42.100;25.222;2023-09-18T03:25:35;100560.78;;;20.95;100.00
8641;BME280;4358;42.100;25.222;2023-09-18T03:28:03;100561.34;;;20.98;100.00
8641;BME280;4358;42.100;25.222;2023-09-18T03:30:30;100557.94;;;20.96;100.00
8641;BME280;4358;42.100;25.222;2023-09-18T03:32:57;100564.72;;;21.00;100.00
8641;BME280;4358;42.100;25.222;2023-09-18T03:35:23;100555.63;;;21.01;100.00
8641;BME280;4358;42.100;25.222;2023-09-18T03:37:51;100562.00;;;21.00;100.00
8641;BME280;4358;42.100;25.222;2023-09-18T03:40:20;100559.94;;;20.94;100.00
8641;BME280;4358;42.100;25.222;2023-09-18T03:42:48;100556.16;;;20.87;100.00
8641;BME280;4358;42.100;25.222;2023-09-18T03:45:15;100554.13;;;20.89;100.00
8641;BME280;4358;42.100;25.222;2023-09-18T03:47:44;100555.06;;;20.80;100.00
8641;BME280;4358;42.100;25.222;2023-09-18T03:50:11;100552.38;;;20.80;100.00
8641;BME280;4358;42.100;25.222;2023-09-18T03:52:39;100562.06;;;20.73;100.00
8641;BME280;4358;42.100;25.222;2023-09-18T03:55:07;100561.78;;;20.76;100.00
8641;BME280;4358;42.100;25.222;2023-09-18T03:57:34;100544.88;;;20.74;100.00
8641;BME280;4358;42.100;25.222;2023-09-18T04:00:04;100568.88;;;20.77;100.00
8641;BME280;4358;42.100;25.222;2023-09-18T04:02:32;100566.56;;;20.82;100.00
8641;BME280;4358;42.100;25.222;2023-09-18T04:05:00;100575.19;;;20.86;100.00
8641;BME280;4358;42.100;25.222;2023-09-18T04:07:26;100564.09;;;20.89;100.00
8641;BME280;4358;42.100;25.222;2023-09-18T04:09:53;100572.09;;;20.81;100.00
8641;BME280;4358;42.100;25.222;2023-09-18T04:12:20;100572.41;;;20.78;100.00
8641;BME280;4358;42.100;25.222;2023-09-18T04:14:47;100573.25;;;20.78;100.00
8641;BME280;4358;42.100;25.222;2023-09-18T04:17:15;100574.81;;;20.81;100.00
8641;BME280;4358;42.100;25.222;2023-09-18T04:19:43;100577.66;;;20.79;100.00
8641;BME280;4358;42.100;25.222;2023-09-18T04:22:11;100576.31;;;20.83;100.00
8641;BME280;4358;42.100;25.222;2023-09-18T04:24:38;100565.09;;;20.88;100.00
8641;BME280;4358;42.100;25.222;2023-09-18T04:27:06;100576.56;;;20.90;100.00
8641;BME280;4358;42.100;25.222;2023-09-18T04:29:33;100575.13;;;20.95;100.00
8641;BME280;4358;42.100;25.222;2023-09-18T04:32:01;100571.97;;;21.00;100.00
8641;BME280;4358;42.100;25.222;2023-09-18T04:34:31;100567.78;;;21.05;100.00
8641;BME280;4358;42.100;25.222;2023-09-18T04:37:00;100567.78;;;21.05;100.00
8641;BME280;4358;42.100;25.222;2023-09-18T04:39:29;100562.00;;;21.00;100.00
8641;BME280;4358;42.100;25.222;2023-09-18T04:42:00;100565.03;;;20.97;100.00
8641;BME280;4358;42.100;25.222;2023-09-18T04:44:29;100564.19;;;20.97;100.00
8641;BME280;4358;42.100;25.222;2023-09-18T04:46:56;100568.88;;;20.95;100.00
8641;BME280;4358;42.100;25.222;2023-09-18T04:49:23;100574.44;;;20.93;100.00
8641;BME280;4358;42.100;25.222;2023-09-18T04:51:51;100564.72;;;21.00;100.00
8641;BME280;4358;42.100;25.222;2023-09-18T04:54:18;100577.91;;;21.03;100.00
8641;BME280;4358;42.100;25.222;2023-09-18T04:56:45;100577.28;;;21.09;100.00
8641;BME280;4358;42.100;25.222;2023-09-18T04:59:12;100583.09;;;21.14;100.00
8641;BME280;4358;42.100;25.222;2023-09-18T05:01:40;100576.22;;;21.20;100.00
8641;BME280;4358;42.100;25.222;2023-09-18T05:04:07;100579.88;;;21.29;100.00
8641;BME280;4358;42.100;25.222;2023-09-18T05:06:34;100583.63;;;21.36;100.00
8641;BME280;4358;42.100;25.222;2023-09-18T05:09:02;100572.22;;;21.42;100.00
8641;BME280;4358;42.100;25.222;2023-09-18T05:11:29;100580.69;;;21.47;100.00
8641;BME280;4358;42.100;25.222;2023-09-18T05:13:57;100582.09;;;21.51;100.00
8641;BME280;4358;42.100;25.222;2023-09-18T05:16:23;100590.97;;;21.61;100.00
8641;BME280;4358;42.100;25.222;2023-09-18T05:18:50;100586.59;;;21.68;100.00
8641;BME280;4358;42.100;25.222;2023-09-18T05:21:17;100575.16;;;21.74;100.00
8641;BME280;4358;42.100;25.222;2023-09-18T05:23:50;100572.38;;;21.84;100.00
8641;BME280;4358;42.100;25.222;2023-09-18T05:26:18;100582.38;;;21.91;100.00
8641;BME280;4358;42.100;25.222;2023-09-18T05:28:45;100584.50;;;21.98;100.00
8641;BME280;4358;42.100;25.222;2023-09-18T05:31:13;100587.56;;;22.03;100.00
8641;BME280;4358;42.100;25.222;2023-09-18T05:33:41;100584.53;;;22.06;100.00
8641;BME280;4358;42.100;25.222;2023-09-18T05:36:07;100590.63;;;22.08;100.00
8641;BME280;4358;42.100;25.222;2023-09-18T05:38:34;100585.59;;;22.13;100.00
8641;BME280;4358;42.100;25.222;2023-09-18T05:41:01;100583.41;;;22.16;100.00
8641;BME280;4358;42.100;25.222;2023-09-18T05:43:32;100583.91;;;22.20;100.00
8641;BME280;4358;42.100;25.222;2023-09-18T05:45:59;100577.50;;;22.21;100.00
8641;BME280;4358;42.100;25.222;2023-09-18T05:48:25;100585.72;;;22.37;100.00
8641;BME280;4358;42.100;25.222;2023-09-18T05:50:52;100581.72;;;22.49;100.00
8641;BME280;4358;42.100;25.222;2023-09-18T05:53:19;100587.16;;;22.57;100.00
8641;BME280;4358;42.100;25.222;2023-09-18T05:55:47;100584.63;;;22.64;100.00
8641;BME280;4358;42.100;25.222;2023-09-18T05:58:14;100588.03;;;22.66;100.00
8641;BME280;4358;42.100;25.222;2023-09-18T06:00:42;100589.09;;;22.73;100.00
8641;BME280;4358;42.100;25.222;2023-09-18T06:03:09;100584.53;;;22.73;100.00
8641;BME280;4358;42.100;25.222;2023-09-18T06:05:38;100593.50;;;22.74;100.00
8641;BME280;4358;42.100;25.222;2023-09-18T06:08:04;100579.81;;;22.75;100.00
8641;BME280;4358;42.100;25.222;2023-09-18T06:10:32;100579.97;;;22.82;100.00
8641;BME280;4358;42.100;25.222;2023-09-18T06:12:59;100585.94;;;22.94;100.00
8641;BME280;4358;42.100;25.222;2023-09-18T06:15:29;100584.97;;;23.11;100.00
8641;BME280;4358;42.100;25.222;2023-09-18T06:17:57;100591.75;;;23.23;100.00
8641;BME280;4358;42.100;25.222;2023-09-18T06:20:24;100591.78;;;23.39;100.00
8641;BME280;4358;42.100;25.222;2023-09-18T06:22:51;100589.41;;;23.44;100.00
8641;BME280;4358;42.100;25.222;2023-09-18T06:25:18;100592.66;;;23.48;100.00
8641;BME280;4358;42.100;25.222;2023-09-18T06:27:45;100590.41;;;23.35;100.00
8641;BME280;4358;42.100;25.222;2023-09-18T06:30:12;100589.25;;;23.46;100.00
8641;BME280;4358;42.100;25.222;2023-09-18T06:32:39;100593.31;;;23.58;100.00
8641;BME280;4358;42.100;25.222;2023-09-18T06:35:08;100596.22;;;23.64;100.00
8641;BME280;4358;42.100;25.222;2023-09-18T06:37:35;100589.25;;;23.70;100.00
8641;BME280;4358;42.100;25.222;2023-09-18T06:40:02;100583.66;;;23.80;100.00
8641;BME280;4358;42.100;25.222;2023-09-18T06:42:31;100596.69;;;23.84;100.00
8641;BME280;4358;42.100;25.222;2023-09-18T06:44:58;100599.22;;;24.02;100.00
8641;BME280;4358;42.100;25.222;2023-09-18T06:47:26;100600.56;;;24.06;100.00
8641;BME280;4358;42.100;25.222;2023-09-18T06:49:53;100603.06;;;24.07;100.00
8641;BME280;4358;42.100;25.222;2023-09-18T06:52:22;100605.94;;;24.14;100.00
8641;BME280;4358;42.100;25.222;2023-09-18T06:54:50;100608.38;;;24.01;100.00
8641;BME280;4358;42.100;25.222;2023-09-18T06:57:17;100609.34;;;24.08;100.00
8641;BME280;4358;42.100;25.222;2023-09-18T06:59:46;100618.00;;;24.12;100.00
8641;BME280;4358;42.100;25.222;2023-09-18T07:02:13;100606.34;;;23.95;100.00
8641;BME280;4358;42.100;25.222;2023-09-18T07:04:40;100610.94;;;23.86;100.00
8641;BME280;4358;42.100;25.222;2023-09-18T07:07:11;100609.41;;;23.76;100.00
8641;BME280;4358;42.100;25.222;2023-09-18T07:09:40;100607.03;;;23.73;100.00
8641;BME280;4358;42.100;25.222;2023-09-18T07:12:07;100608.03;;;23.55;100.00
8641;BME280;4358;42.100;25.222;2023-09-18T07:14:35;100609.44;;;23.59;100.00
8641;BME280;4358;42.100;25.222;2023-09-18T07:17:03;100603.66;;;23.46;100.00
8641;BME280;4358;42.100;25.222;2023-09-18T07:19:30;100608.91;;;23.56;100.00
8641;BME280;4358;42.100;25.222;2023-09-18T07:21:57;100616.00;;;23.57;100.00
8641;BME280;4358;42.100;25.222;2023-09-18T07:24:24;100615.50;;;23.61;100.00
8641;BME280;4358;42.100;25.222;2023-09-18T07:26:53;100606.03;;;23.74;100.00
8641;BME280;4358;42.100;25.222;2023-09-18T07:29:20;100599.25;;;23.70;100.00
8641;BME280;4358;42.100;25.222;2023-09-18T07:31:47;100604.31;;;23.73;100.00
8641;BME280;4358;42.100;25.222;2023-09-18T07:34:14;100611.75;;;23.87;100.00
8641;BME280;4358;42.100;25.222;2023-09-18T07:36:43;100612.78;;;23.94;100.00
8641;BME280;4358;42.100;25.222;2023-09-18T07:39:11;100608.69;;;23.98;100.00
8641;BME280;4358;42.100;25.222;2023-09-18T07:41:38;100610.41;;;23.99;100.00
8641;BME280;4358;42.100;25.222;2023-09-18T07:44:06;100611.06;;;24.01;100.00
8641;BME280;4358;42.100;25.222;2023-09-18T07:46:33;100611.06;;;23.93;100.00
8641;BME280;4358;42.100;25.222;2023-09-18T07:48:59;100615.50;;;24.02;100.00
8641;BME280;4358;42.100;25.222;2023-09-18T07:51:26;100614.97;;;24.06;100.00
8641;BME280;4358;42.100;25.222;2023-09-18T07:53:53;100616.16;;;24.12;100.00
8641;BME280;4358;42.100;25.222;2023-09-18T07:56:20;100616.16;;;24.28;100.00
8641;BME280;4358;42.100;25.222;2023-09-18T07:58:47;100617.81;;;24.37;100.00
8641;BME280;4358;42.100;25.222;2023-09-18T08:01:15;100619.50;;;24.30;100.00
8641;BME280;4358;42.100;25.222;2023-09-18T08:03:42;100604.78;;;24.25;100.00
8641;BME280;4358;42.100;25.222;2023-09-18T08:06:09;100608.66;;;24.30;100.00
8641;BME280;4358;42.100;25.222;2023-09-18T08:08:37;100603.22;;;24.30;100.00
8641;BME280;4358;42.100;25.222;2023-09-18T08:11:08;100606.25;;;24.35;100.00
8641;BME280;4358;42.100;25.222;2023-09-18T08:13:35;100614.72;;;24.40;100.00
8641;BME280;4358;42.100;25.222;2023-09-18T08:16:02;100611.03;;;24.33;100.00
8641;BME280;4358;42.100;25.222;2023-09-18T08:18:31;100601.34;;;24.39;99.75
8641;BME280;4358;42.100;25.222;2023-09-18T08:20:58;100601.78;;;24.59;98.73
8641;BME280;4358;42.100;25.222;2023-09-18T08:23:25;100597.94;;;24.76;97.90
8641;BME280;4358;42.100;25.222;2023-09-18T08:25:52;100598.22;;;24.97;96.71
8641;BME280;4358;42.100;25.222;2023-09-18T08:28:21;100593.50;;;25.22;96.03
8641;BME280;4358;42.100;25.222;2023-09-18T08:30:48;100587.00;;;25.46;93.99
8641;BME280;4358;42.100;25.222;2023-09-18T08:33:15;100589.81;;;25.75;92.38
8641;BME280;4358;42.100;25.222;2023-09-18T08:35:43;100589.16;;;26.10;91.42
8641;BME280;4358;42.100;25.222;2023-09-18T08:38:12;100585.50;;;26.33;89.78
8641;BME280;4358;42.100;25.222;2023-09-18T08:40:40;100578.09;;;26.56;88.26
8641;BME280;4358;42.100;25.222;2023-09-18T08:43:08;100573.94;;;26.89;87.20
8641;BME280;4358;42.100;25.222;2023-09-18T08:45:42;100563.38;;;27.22;85.82
8641;BME280;4358;42.100;25.222;2023-09-18T08:48:10;100560.19;;;27.19;84.19
8641;BME280;4358;42.100;25.222;2023-09-18T08:50:38;100561.16;;;27.11;85.53
8641;BME280;4358;42.100;25.222;2023-09-18T08:53:07;100563.78;;;26.83;85.70
8641;BME280;4358;42.100;25.222;2023-09-18T08:55:35;100570.91;;;26.99;84.78
8641;BME280;4358;42.100;25.222;2023-09-18T08:58:02;100557.47;;;27.19;83.05
8641;BME280;4358;42.100;25.222;2023-09-18T09:00:29;100550.25;;;27.11;83.39
8641;BME280;4358;42.100;25.222;2023-09-18T09:02:56;100547.75;;;27.10;82.24
8641;BME280;4358;42.100;25.222;2023-09-18T09:05:24;100548.44;;;26.97;82.50
8641;BME280;4358;42.100;25.222;2023-09-18T09:07:51;100558.91;;;26.93;83.23
8641;BME280;4358;42.100;25.222;2023-09-18T09:10:20;100552.72;;;27.06;82.57
8641;BME280;4358;42.100;25.222;2023-09-18T09:12:48;100549.88;;;27.14;82.50
8641;BME280;4358;42.100;25.222;2023-09-18T09:15:14;100544.00;;;27.32;81.77
8641;BME280;4358;42.100;25.222;2023-09-18T09:17:42;100547.22;;;27.42;80.48
8641;BME280;4358;42.100;25.222;2023-09-18T09:20:10;100545.56;;;27.69;79.66
8641;BME280;4358;42.100;25.222;2023-09-18T09:22:38;100535.81;;;27.81;79.76
8641;BME280;4358;42.100;25.222;2023-09-18T09:25:23;100548.59;;;27.80;78.62
8641;BME280;4358;42.100;25.222;2023-09-18T09:27:52;100541.31;;;27.38;79.72
8641;BME280;4358;42.100;25.222;2023-09-18T09:30:19;100536.78;;;27.46;79.73
8641;BME280;4358;42.100;25.222;2023-09-18T09:32:48;100534.16;;;27.59;79.26
8641;BME280;4358;42.100;25.222;2023-09-18T09:35:20;100534.53;;;27.77;78.60
8641;BME280;4358;42.100;25.222;2023-09-18T09:37:47;100528.34;;;27.96;78.79
8641;BME280;4358;42.100;25.222;2023-09-18T09:40:16;100523.00;;;28.09;76.69
8641;BME280;4358;42.100;25.222;2023-09-18T09:42:47;100521.44;;;28.28;75.32
8641;BME280;4358;42.100;25.222;2023-09-18T09:45:15;100526.41;;;28.18;75.84
8641;BME280;4358;42.100;25.222;2023-09-18T09:47:43;100526.75;;;28.08;75.99
8641;BME280;4358;42.100;25.222;2023-09-18T09:50:11;100520.63;;;28.34;75.05
8641;BME280;4358;42.100;25.222;2023-09-18T09:52:42;100510.63;;;28.54;74.73
8641;BME280;4358;42.100;25.222;2023-09-18T09:55:24;100520.75;;;28.60;71.97
8641;BME280;4358;42.100;25.222;2023-09-18T09:57:54;100517.59;;;28.63;73.16
8641;BME280;4358;42.100;25.222;2023-09-18T10:00:23;100521.72;;;28.40;73.36
8641;BME280;4358;42.100;25.222;2023-09-18T10:02:57;100513.47;;;28.33;72.88
8641;BME280;4358;42.100;25.222;2023-09-18T10:05:27;100519.28;;;28.17;73.07
8641;BME280;4358;42.100;25.222;2023-09-18T10:07:57;100518.69;;;27.94;71.03
8641;BME280;4358;42.100;25.222;2023-09-18T10:10:33;100513.59;;;27.56;70.11
8641;BME280;4358;42.100;25.222;2023-09-18T10:13:08;100511.97;;;27.40;68.24
8641;BME280;4358;42.100;25.222;2023-09-18T10:15:37;100503.84;;;27.68;69.33
8641;BME280;4358;42.100;25.222;2023-09-18T10:18:07;100497.03;;;27.86;68.05
8641;BME280;4358;42.100;25.222;2023-09-18T10:20:40;100504.63;;;27.62;68.66
8641;BME280;4358;42.100;25.222;2023-09-18T10:23:18;100505.25;;;27.36;65.94
8641;BME280;4358;42.100;25.222;2023-09-18T10:25:54;100471.72;;;27.15;64.64
8641;BME280;4358;42.100;25.222;2023-09-18T10:28:24;100499.53;;;27.31;63.68
8641;BME280;4358;42.100;25.222;2023-09-18T10:30:55;100488.13;;;27.70;64.54
8641;BME280;4358;42.100;25.222;2023-09-18T10:33:23;100491.00;;;27.97;61.96
8641;BME280;4358;42.100;25.222;2023-09-18T10:35:51;100479.72;;;28.00;62.48
8641;BME280;4358;42.100;25.222;2023-09-18T10:38:20;100486.91;;;27.79;61.69
8641;BME280;4358;42.100;25.222;2023-09-18T10:40:47;100482.59;;;27.92;63.43
8641;BME280;4358;42.100;25.222;2023-09-18T10:43:16;100491.25;;;27.67;64.24
8641;BME280;4358;42.100;25.222;2023-09-18T10:45:49;100479.63;;;27.87;63.72
8641;BME280;4358;42.100;25.222;2023-09-18T10:48:18;100479.22;;;27.90;63.52
8641;BME280;4358;42.100;25.222;2023-09-18T10:50:45;100483.22;;;28.28;63.32
8641;BME280;4358;42.100;25.222;2023-09-18T10:53:13;100475.69;;;28.30;59.71
8641;BME280;4358;42.100;25.222;2023-09-18T10:55:41;100463.72;;;28.38;58.28
8641;BME280;4358;42.100;25.222;2023-09-18T10:58:09;100478.09;;;28.12;58.05
8641;BME280;4358;42.100;25.222;2023-09-18T11:00:36;100474.00;;;27.95;57.53
8641;BME280;4358;42.100;25.222;2023-09-18T11:03:13;100467.19;;;28.12;57.16
8641;BME280;4358;42.100;25.222;2023-09-18T11:05:40;100468.09;;;28.26;57.31
8641;BME280;4358;42.100;25.222;2023-09-18T11:08:26;100460.91;;;28.18;57.93
8641;BME280;4358;42.100;25.222;2023-09-18T11:11:02;100463.00;;;28.16;57.00
8641;BME280;4358;42.100;25.222;2023-09-18T11:13:36;100457.28;;;28.52;56.83
8641;BME280;4358;42.100;25.222;2023-09-18T11:16:17;100450.97;;;28.51;55.56
8641;BME280;4358;42.100;25.222;2023-09-18T11:18:52;100449.69;;;28.47;55.95
8641;BME280;4358;42.100;25.222;2023-09-18T11:21:23;100445.97;;;28.61;56.39
8641;BME280;4358;42.100;25.222;2023-09-18T11:23:58;100447.00;;;28.60;56.29
8641;BME280;4358;42.100;25.222;2023-09-18T11:26:28;100445.06;;;28.48;56.68
8641;BME280;4358;42.100;25.222;2023-09-18T11:28:56;100447.22;;;28.52;56.93
8641;BME280;4358;42.100;25.222;2023-09-18T11:31:43;100452.91;;;28.71;56.61
8641;BME280;4358;42.100;25.222;2023-09-18T11:34:19;100442.88;;;28.91;54.64
8641;BME280;4358;42.100;25.222;2023-09-18T11:36:46;100440.56;;;29.01;54.34
8641;BME280;4358;42.100;25.222;2023-09-18T11:39:13;100432.59;;;29.19;53.63
8641;BME280;4358;42.100;25.222;2023-09-18T11:42:06;100438.88;;;28.87;51.68
8641;BME280;4358;42.100;25.222;2023-09-18T11:44:34;100429.84;;;28.80;52.71
8641;BME280;4358;42.100;25.222;2023-09-18T11:47:07;100426.47;;;28.91;51.92
8641;BME280;4358;42.100;25.222;2023-09-18T11:49:40;100428.31;;;28.71;52.65
8641;BME280;4358;42.100;25.222;2023-09-18T11:52:09;100419.47;;;28.55;53.43
8641;BME280;4358;42.100;25.222;2023-09-18T11:54:39;100428.94;;;28.59;53.83
8641;BME280;4358;42.100;25.222;2023-09-18T11:57:07;100419.97;;;28.85;53.91
8641;BME280;4358;42.100;25.222;2023-09-18T11:59:38;100419.13;;;28.85;54.82
8641;BME280;4358;42.100;25.222;2023-09-18T12:02:06;100421.44;;;28.88;55.47
8641;BME280;4358;42.100;25.222;2023-09-18T12:04:33;100427.56;;;29.03;52.95
8641;BME280;4358;42.100;25.222;2023-09-18T12:07:03;100416.63;;;28.83;54.21
8641;BME280;4358;42.100;25.222;2023-09-18T12:09:33;100410.72;;;28.73;51.66
8641;BME280;4358;42.100;25.222;2023-09-18T12:12:00;100403.16;;;29.01;52.70
8641;BME280;4358;42.100;25.222;2023-09-18T12:14:31;100404.44;;;29.25;52.94
8641;BME280;4358;42.100;25.222;2023-09-18T12:16:59;100393.69;;;29.50;52.75
8641;BME280;4358;42.100;25.222;2023-09-18T12:19:28;100404.63;;;29.43;52.77
8641;BME280;4358;42.100;25.222;2023-09-18T12:21:55;100397.25;;;29.51;53.31
8641;BME280;4358;42.100;25.222;2023-09-18T12:24:23;100399.38;;;29.29;54.11
8641;BME280;4358;42.100;25.222;2023-09-18T12:26:52;100407.38;;;29.30;54.01
8641;BME280;4358;42.100;25.222;2023-09-18T12:29:19;100406.94;;;29.07;54.28
8641;BME280;4358;42.100;25.222;2023-09-18T12:31:47;100412.81;;;28.91;55.18
8641;BME280;4358;42.100;25.222;2023-09-18T12:34:17;100401.88;;;29.17;54.62
8641;BME280;4358;42.100;25.222;2023-09-18T12:36:47;100400.19;;;29.16;54.25
8641;BME280;4358;42.100;25.222;2023-09-18T12:39:14;100392.00;;;29.16;52.16
8641;BME280;4358;42.100;25.222;2023-09-18T12:41:43;100388.63;;;29.27;52.69
8641;BME280;4358;42.100;25.222;2023-09-18T12:44:11;100371.00;;;28.97;54.23
8641;BME280;4358;42.100;25.222;2023-09-18T12:46:40;100380.63;;;28.67;55.18
8641;BME280;4358;42.100;25.222;2023-09-18T12:49:20;100363.59;;;28.58;53.91
8641;BME280;4358;42.100;25.222;2023-09-18T12:51:56;100380.22;;;28.89;53.00
8641;BME280;4358;42.100;25.222;2023-09-18T12:54:37;100379.19;;;29.17;50.98
8641;BME280;4358;42.100;25.222;2023-09-18T12:57:06;100348.91;;;29.12;48.59
8641;BME280;4358;42.100;25.222;2023-09-18T12:59:34;100373.72;;;29.17;51.00